createdAt,value
2018-11-06T00:01:42.341Z,98854.91
2018-11-06T00:04:12.948Z,98847.34
2018-11-06T00:06:43.933Z,98850.33
2018-11-06T00:09:14.798Z,98847.17
2018-11-06T00:11:45.698Z,98847.62
2018-11-06T00:14:16.551Z,98860.31
2018-11-06T00:16:47.558Z,98858.61
2018-11-06T00:19:18.516Z,98856.19
2018-11-06T00:21:49.351Z,98860.29
2018-11-06T00:24:20.548Z,98864.42
2018-11-06T00:26:51.850Z,98869.16
2018-11-06T00:29:22.766Z,98865.61
2018-11-06T00:31:53.360Z,98861.66
2018-11-06T00:34:24.437Z,98864.33
2018-11-06T00:36:55.781Z,98862.73
2018-11-06T00:39:26.769Z,98872.22
2018-11-06T00:41:57.783Z,98870.42
2018-11-06T00:44:28.677Z,98868.84
2018-11-06T00:46:59.432Z,98867.19
2018-11-06T00:49:30.390Z,98871.77
2018-11-06T00:52:01.305Z,98872.87
2018-11-06T00:54:32.267Z,98875.09
2018-11-06T00:57:03.189Z,98872.58
2018-11-06T00:59:34.302Z,98868.47
2018-11-06T01:02:05.460Z,98868.97
2018-11-06T01:04:36.403Z,98865.50
2018-11-06T01:07:07.637Z,98864.45
2018-11-06T01:09:38.554Z,98860.03
2018-11-06T01:12:10.367Z,98864.44
2018-11-06T01:14:41.228Z,98860.41
2018-11-06T01:17:13.158Z,98861.95
2018-11-06T01:19:43.929Z,98860.40
2018-11-06T01:22:14.670Z,98853.70
2018-11-06T01:24:45.450Z,98855.13
2018-11-06T01:27:16.669Z,98846.91
2018-11-06T01:29:47.300Z,98851.19
2018-11-06T01:32:18.148Z,98855.13
2018-11-06T01:34:48.656Z,98851.09
2018-11-06T01:37:19.148Z,98852.77
2018-11-06T01:39:49.703Z,98850.77
2018-11-06T01:42:20.170Z,98852.23
2018-11-06T01:44:50.751Z,98843.91
2018-11-06T01:47:21.191Z,98850.48
2018-11-06T01:49:51.916Z,98844.88
2018-11-06T01:52:22.965Z,98849.87
2018-11-06T01:54:53.450Z,98843.34
2018-11-06T01:57:23.748Z,98842.15
2018-11-06T01:59:54.321Z,98840.00
2018-11-06T02:02:25.476Z,98836.05
2018-11-06T02:04:55.856Z,98828.91
2018-11-06T02:07:26.302Z,98833.92
2018-11-06T02:09:56.901Z,98829.64
2018-11-06T02:12:27.279Z,98830.35
2018-11-06T02:14:57.712Z,98835.09
2018-11-06T02:17:28.646Z,98836.63
2018-11-06T02:19:59.363Z,98833.56
2018-11-06T02:22:30.104Z,98829.98
2018-11-06T02:25:00.992Z,98827.59
2018-11-06T02:27:31.963Z,98825.09
2018-11-06T02:30:03.053Z,98823.07
2018-11-06T02:32:33.941Z,98817.45
2018-11-06T02:35:04.748Z,98818.83
2018-11-06T02:37:35.520Z,98819.55
2018-11-06T02:40:06.950Z,98813.55
2018-11-06T02:42:37.926Z,98810.47
2018-11-06T02:45:09.401Z,98811.06
2018-11-06T02:47:40.223Z,98813.03
2018-11-06T02:50:12.308Z,98812.37
2018-11-06T02:52:43.456Z,98808.70
2018-11-06T02:55:14.574Z,98808.45
2018-11-06T02:57:45.393Z,98809.29
2018-11-06T03:00:17.721Z,98805.86
2018-11-06T03:02:48.828Z,98801.81
2018-11-06T03:05:19.573Z,98798.44
2018-11-06T03:07:50.588Z,98788.81
2018-11-06T03:10:21.544Z,98783.20
2018-11-06T03:12:52.563Z,98790.50
2018-11-06T03:15:23.286Z,98776.47
2018-11-06T03:17:53.978Z,98779.77
2018-11-06T03:20:24.862Z,98778.09
2018-11-06T03:22:55.854Z,98772.22
2018-11-06T03:25:26.699Z,98772.05
2018-11-06T03:27:57.556Z,98782.77
2018-11-06T03:30:28.372Z,98788.78
2018-11-06T03:32:59.223Z,98785.06
2018-11-06T03:35:29.800Z,98789.19
2018-11-06T03:38:00.308Z,98789.48
2018-11-06T03:40:31.647Z,98795.69
2018-11-06T03:43:02.139Z,98793.98
2018-11-06T03:45:33.273Z,98797.56
2018-11-06T03:48:03.969Z,98806.97
2018-11-06T03:50:34.637Z,98810.33
2018-11-06T03:53:05.320Z,98804.37
2018-11-06T03:55:36.452Z,98804.77
2018-11-06T03:58:07.057Z,98800.66
2018-11-06T04:00:37.452Z,98800.31
2018-11-06T04:03:08.370Z,98797.36
2018-11-06T04:05:38.755Z,98796.91
2018-11-06T04:08:09.608Z,98795.16
2018-11-06T04:10:40.039Z,98797.23
2018-11-06T04:13:10.526Z,98792.01
2018-11-06T04:15:40.940Z,98794.17
2018-11-06T04:18:11.459Z,98792.64
2018-11-06T04:20:41.956Z,98794.67
2018-11-06T04:23:12.522Z,98791.21
2018-11-06T04:25:42.956Z,98789.06
2018-11-06T04:28:13.373Z,98792.27
2018-11-06T04:30:43.886Z,98801.54
2018-11-06T04:33:14.376Z,98799.92
2018-11-06T04:35:44.855Z,98797.88
2018-11-06T04:38:15.374Z,98795.84
2018-11-06T04:40:45.755Z,98795.61
2018-11-06T04:43:16.130Z,98795.98
2018-11-06T04:45:46.753Z,98792.41
2018-11-06T04:48:17.679Z,98792.06
2018-11-06T04:50:48.075Z,98790.88
2018-11-06T04:53:18.790Z,98794.42
2018-11-06T04:55:49.405Z,98797.50
2018-11-06T04:58:19.946Z,98793.70
2018-11-06T05:00:50.554Z,98794.08
2018-11-06T05:03:21.416Z,98802.40
2018-11-06T05:05:52.010Z,98803.26
2018-11-06T05:08:22.698Z,98801.41
2018-11-06T05:10:53.170Z,98805.34
2018-11-06T05:13:23.575Z,98808.21
2018-11-06T05:15:54.238Z,98802.39
2018-11-06T05:18:24.907Z,98799.91
2018-11-06T05:20:55.431Z,98796.83
2018-11-06T05:23:25.956Z,98803.25
2018-11-06T05:25:56.390Z,98800.89
2018-11-06T05:28:26.785Z,98802.41
2018-11-06T05:30:57.250Z,98806.34
2018-11-06T05:33:27.941Z,98794.59
2018-11-06T05:35:58.568Z,98796.63
2018-11-06T05:38:28.912Z,98800.22
2018-11-06T05:41:04.720Z,98798.06
2018-11-06T05:43:35.646Z,98804.01
2018-11-06T05:46:06.324Z,98800.89
2018-11-06T05:48:36.818Z,98794.72
2018-11-06T05:51:08.434Z,98798.52
2018-11-06T05:53:39.389Z,98799.96
2018-11-06T05:56:10.627Z,98804.64
2018-11-06T05:58:41.365Z,98812.59
2018-11-06T06:01:11.826Z,98819.13
2018-11-06T06:03:42.485Z,98812.00
2018-11-06T06:06:13.340Z,98812.84
2018-11-06T06:08:43.985Z,98815.84
2018-11-06T06:11:14.663Z,98815.24
2018-11-06T06:13:45.166Z,98821.58
2018-11-06T06:16:16.411Z,98824.07
2018-11-06T06:18:47.092Z,98826.50
2018-11-06T06:21:18.778Z,98825.91
2018-11-06T06:23:49.632Z,98837.45
2018-11-06T06:26:20.455Z,98839.00
2018-11-06T06:28:51.275Z,98846.98
2018-11-06T06:31:22.068Z,98844.16
2018-11-06T06:33:53.031Z,98851.20
2018-11-06T06:36:24.399Z,98854.30
2018-11-06T06:38:55.220Z,98853.03
2018-11-06T06:41:26.723Z,98861.39
2018-11-06T06:43:57.341Z,98854.42
2018-11-06T06:46:28.309Z,98854.16
2018-11-06T06:48:59.357Z,98867.34
2018-11-06T06:51:30.106Z,98867.86
2018-11-06T06:54:01.061Z,98870.30
2018-11-06T06:56:32.056Z,98877.96
2018-11-06T06:59:03.352Z,98876.56
2018-11-06T07:01:34.435Z,98871.53
2018-11-06T07:04:05.418Z,98871.22
2018-11-06T07:06:36.476Z,98880.18
2018-11-06T07:09:10.648Z,98875.04
2018-11-06T07:11:41.745Z,98879.45
2018-11-06T07:14:13.067Z,98878.09
2018-11-06T07:16:44.032Z,98878.95
2018-11-06T07:19:15.037Z,98879.02
2018-11-06T07:21:46.109Z,98880.36
2018-11-06T07:24:17.103Z,98883.02
2018-11-06T07:26:48.296Z,98885.06
2018-11-06T07:29:19.135Z,98879.74
2018-11-06T07:31:50.009Z,98879.83
2018-11-06T07:34:20.946Z,98883.84
2018-11-06T07:36:52.509Z,98882.48
2018-11-06T07:39:23.622Z,98880.67
2018-11-06T07:41:54.740Z,98882.17
2018-11-06T07:44:25.723Z,98872.98
2018-11-06T07:46:56.715Z,98876.34
2018-11-06T07:49:27.639Z,98882.86
2018-11-06T07:51:58.612Z,98879.64
2018-11-06T07:54:30.232Z,98878.24
2018-11-06T07:57:01.471Z,98881.16
2018-11-06T07:59:32.471Z,98873.69
2018-11-06T08:02:04.159Z,98879.94
2018-11-06T08:04:35.287Z,98884.62
2018-11-06T08:07:06.475Z,98881.00
2018-11-06T08:09:37.616Z,98885.28
2018-11-06T08:12:08.934Z,98882.77
2018-11-06T08:14:39.895Z,98883.69
2018-11-06T08:17:10.897Z,98884.27
2018-11-06T08:19:42.163Z,98880.79
2018-11-06T08:22:13.695Z,98870.91
2018-11-06T08:24:44.817Z,98880.30
2018-11-06T08:27:16.079Z,98878.22
2018-11-06T08:29:47.114Z,98881.20
2018-11-06T08:32:18.474Z,98883.09
2018-11-06T08:34:49.573Z,98891.30
2018-11-06T08:37:20.527Z,98895.05
2018-11-06T08:39:52.623Z,98887.33
2018-11-06T08:42:23.493Z,98895.66
2018-11-06T08:44:54.860Z,98892.34
2018-11-06T08:47:25.998Z,98909.12
2018-11-06T08:49:57.500Z,98901.75
2018-11-06T08:52:28.173Z,98906.73
2018-11-06T08:54:59.047Z,98909.23
2018-11-06T08:57:30.386Z,98916.92
2018-11-06T09:00:01.601Z,98921.27
2018-11-06T09:02:32.482Z,98930.94
2018-11-06T09:05:03.078Z,98926.77
2018-11-06T09:07:33.596Z,98926.37
2018-11-06T09:10:04.901Z,98935.25
2018-11-06T09:19:47.162Z,98916.55
2018-11-06T09:22:17.781Z,98922.16
2018-11-06T09:24:48.784Z,98919.80
2018-11-06T09:28:14.582Z,98919.89
2018-11-06T09:30:45.373Z,98919.68
2018-11-06T09:33:16.766Z,98924.86
2018-11-06T09:35:47.994Z,98917.02
2018-11-06T09:38:19.049Z,98917.63
2018-11-06T09:40:50.849Z,98917.34
2018-11-06T09:43:22.377Z,98923.48
2018-11-06T09:45:53.162Z,98919.17
2018-11-06T09:48:25.547Z,98916.08
2018-11-06T09:50:56.394Z,98903.09
2018-11-06T09:53:27.720Z,98908.59
2018-11-06T09:55:58.186Z,98909.14
2018-11-06T10:02:05.119Z,98899.24
2018-11-06T10:04:36.227Z,98891.42
2018-11-06T10:07:08.233Z,98896.70
2018-11-06T10:09:39.125Z,98890.19
2018-11-06T10:12:10.524Z,98891.53
2018-11-06T10:14:42.046Z,98891.78
2018-11-06T10:17:13.720Z,98883.78
2018-11-06T10:19:44.906Z,98885.67
2018-11-06T10:22:16.184Z,98882.64
2018-11-06T10:24:48.208Z,98876.97
2018-11-06T10:27:19.972Z,98876.14
2018-11-06T10:29:51.454Z,98877.81
2018-11-06T10:32:22.822Z,98878.52
2018-11-06T10:34:54.266Z,98873.70
2018-11-06T10:37:25.849Z,98878.26
2018-11-06T10:39:57.100Z,98893.69
2018-11-06T10:42:28.982Z,98872.86
2018-11-06T10:45:01.092Z,98874.17
2018-11-06T10:47:32.208Z,98874.30
2018-11-06T10:50:02.699Z,98854.80
2018-11-06T10:52:33.760Z,98859.86
2018-11-06T10:55:05.721Z,98859.77
2018-11-06T10:57:38.702Z,98857.17
2018-11-06T11:00:19.294Z,98856.60
2018-11-06T11:02:55.067Z,98848.68
2018-11-06T11:05:27.754Z,98860.29
2018-11-06T11:07:58.250Z,98851.25
2018-11-06T11:10:28.888Z,98837.69
2018-11-06T11:12:59.862Z,98825.65
2018-11-06T11:15:31.575Z,98823.98
2018-11-06T11:18:02.354Z,98815.29
2018-11-06T11:20:33.793Z,98815.44
2018-11-06T11:23:06.210Z,98816.38
2018-11-06T11:25:37.031Z,98811.39
2018-11-06T11:28:08.081Z,98814.36
2018-11-06T11:30:39.660Z,98813.03
2018-11-06T11:33:11.333Z,98804.36
2018-11-06T11:35:42.132Z,98807.27
2018-11-06T11:38:13.341Z,98830.79
2018-11-06T11:40:44.135Z,98814.00
2018-11-06T11:43:15.414Z,98808.91
2018-11-06T11:45:46.582Z,98795.35
2018-11-06T11:48:18.691Z,98791.77
2018-11-06T11:50:49.425Z,98782.27
2018-11-06T11:53:20.985Z,98782.00
2018-11-06T11:55:52.928Z,98785.89
2018-11-06T11:58:23.847Z,98790.47
2018-11-06T12:00:55.264Z,98783.34
2018-11-06T12:03:26.420Z,98782.93
2018-11-06T12:05:57.511Z,98791.84
2018-11-06T12:08:31.061Z,98776.64
2018-11-06T12:11:02.838Z,98770.57
2018-11-06T12:13:34.026Z,98777.66
2018-11-06T12:16:05.216Z,98776.67
2018-11-06T12:18:36.142Z,98764.22
2018-11-06T12:21:07.524Z,98765.52
2018-11-06T12:23:38.743Z,98766.55
2018-11-06T12:26:10.120Z,98764.00
2018-11-06T12:28:42.990Z,98773.50
2018-11-06T12:31:15.752Z,98758.61
2018-11-06T12:33:47.614Z,98779.30
2018-11-06T12:36:19.108Z,98768.54
2018-11-06T12:38:51.078Z,98758.70
2018-11-06T12:41:22.527Z,98744.61
2018-11-06T12:43:53.984Z,98755.80
2018-11-06T12:46:26.553Z,98738.34
2018-11-06T12:48:58.003Z,98751.72
2018-11-06T12:51:30.034Z,98741.02
2018-11-06T12:54:02.734Z,98742.06
2018-11-06T12:56:34.414Z,98726.30
2018-11-06T12:59:06.243Z,98728.67
2018-11-06T13:01:38.643Z,98731.72
2018-11-06T13:04:10.886Z,98727.78
2018-11-06T13:06:42.718Z,98725.68
2018-11-06T13:09:14.657Z,98726.16
2018-11-06T13:11:46.926Z,98733.55
2018-11-06T13:14:18.627Z,98722.69
2018-11-06T13:16:52.244Z,98721.89
2018-11-06T13:19:24.268Z,98711.33
2018-11-06T13:21:56.469Z,98718.46
2018-11-06T13:24:28.438Z,98715.47
2018-11-06T13:27:00.128Z,98719.12
2018-11-06T13:29:31.751Z,98719.31
2018-11-06T13:32:04.036Z,98718.44
2018-11-06T13:34:36.682Z,98704.67
2018-11-06T13:37:08.978Z,98710.67
2018-11-06T13:39:41.254Z,98705.81
2018-11-06T13:42:13.273Z,98709.75
2018-11-06T13:44:45.504Z,98707.22
2018-11-06T13:47:17.327Z,98694.08
2018-11-06T13:49:49.825Z,98690.58
2018-11-06T13:52:22.065Z,98689.31
2018-11-06T13:54:53.431Z,98695.08
2018-11-06T13:57:24.759Z,98689.11
2018-11-06T13:59:56.108Z,98697.87
2018-11-06T14:02:27.061Z,98694.98
2018-11-06T14:04:58.302Z,98699.47
2018-11-06T14:07:29.455Z,98701.04
2018-11-06T14:10:00.258Z,98695.05
2018-11-06T14:12:31.341Z,98697.83
2018-11-06T14:15:02.646Z,98700.87
2018-11-06T14:17:33.817Z,98695.19
2018-11-06T14:20:04.874Z,98699.38
2018-11-06T14:22:35.842Z,98696.32
2018-11-06T14:25:07.576Z,98692.20
2018-11-06T14:27:38.692Z,98701.84
2018-11-06T14:30:18.788Z,98698.41
2018-11-06T14:32:49.501Z,98694.79
2018-11-06T14:35:20.714Z,98696.31
2018-11-06T14:37:52.095Z,98691.17
2018-11-06T14:40:22.886Z,98690.16
2018-11-06T14:42:53.510Z,98688.98
2018-11-06T14:45:24.031Z,98685.62
2018-11-06T14:47:55.015Z,98686.58
2018-11-06T14:50:25.574Z,98682.92
2018-11-06T14:52:56.154Z,98689.20
2018-11-06T14:55:26.828Z,98683.05
2018-11-06T14:57:58.520Z,98678.52
2018-11-06T15:00:29.622Z,98675.20
2018-11-06T15:03:01.017Z,98673.98
2018-11-06T15:05:33.597Z,98683.28
2018-11-06T15:08:05.080Z,98675.78
2018-11-06T15:10:35.915Z,98669.54
2018-11-06T15:13:06.868Z,98671.47
2018-11-06T15:15:37.564Z,98670.69
2018-11-06T15:18:08.333Z,98667.70
2018-11-06T15:20:39.298Z,98658.11
2018-11-06T15:23:10.729Z,98656.25
2018-11-06T15:25:41.755Z,98655.24
2018-11-06T15:28:13.842Z,98650.61
2018-11-06T15:30:44.469Z,98650.59
2018-11-06T15:33:15.389Z,98646.83
2018-11-06T15:35:46.151Z,98644.81
2018-11-06T15:38:16.762Z,98656.27
2018-11-06T15:40:47.914Z,98655.16
2018-11-06T15:43:18.644Z,98666.77
2018-11-06T15:45:49.285Z,98673.72
2018-11-06T15:48:20.169Z,98676.19
2018-11-06T15:50:50.909Z,98678.64
2018-11-06T15:53:21.688Z,98677.60
2018-11-06T15:55:53.450Z,98681.52
2018-11-06T15:58:25.152Z,98679.19
2018-11-06T16:00:57.387Z,98680.12
2018-11-06T16:03:29.264Z,98676.64
2018-11-06T16:06:01.859Z,98676.95
2018-11-06T16:08:33.427Z,98679.39
2018-11-06T16:11:05.265Z,98674.91
2018-11-06T16:13:36.337Z,98677.58
2018-11-06T16:16:08.499Z,98676.80
2018-11-06T16:18:41.464Z,98683.25
2018-11-06T16:21:14.765Z,98685.84
2018-11-06T16:23:47.298Z,98685.84
2018-11-06T16:26:19.789Z,98685.95
2018-11-06T16:28:52.358Z,98681.99
2018-11-06T16:31:24.822Z,98685.38
2018-11-06T16:33:57.298Z,98675.47
2018-11-06T16:36:29.879Z,98673.63
2018-11-06T16:39:02.761Z,98685.33
2018-11-06T16:41:35.268Z,98683.89
2018-11-06T16:44:07.849Z,98691.86
2018-11-06T16:46:40.671Z,98691.13
2018-11-06T16:49:14.185Z,98692.30
2018-11-06T16:51:47.060Z,98689.48
2018-11-06T16:54:19.810Z,98689.81
2018-11-06T16:56:53.587Z,98684.59
2018-11-06T16:59:25.877Z,98690.39
2018-11-06T17:01:58.886Z,98690.33
2018-11-06T17:04:32.340Z,98699.62
2018-11-06T17:07:05.789Z,98695.55
2018-11-06T17:09:38.785Z,98707.34
2018-11-06T17:12:11.436Z,98706.09
2018-11-06T17:14:43.871Z,98706.55
2018-11-06T17:17:16.436Z,98702.36
2018-11-06T17:19:50.930Z,98701.24
2018-11-06T17:22:24.549Z,98711.58
2018-11-06T17:24:57.213Z,98708.61
2018-11-06T17:27:29.710Z,98698.45
2018-11-06T17:30:02.045Z,98690.75
2018-11-06T17:32:34.557Z,98699.56
2018-11-06T17:35:08.023Z,98691.66
2018-11-06T17:37:40.353Z,98697.36
2018-11-06T17:40:15.751Z,98701.11
2018-11-06T17:42:48.780Z,98696.47
2018-11-06T17:45:23.411Z,98696.14
2018-11-06T17:47:56.649Z,98698.98
2018-11-06T17:50:29.012Z,98692.34
2018-11-06T17:53:01.512Z,98697.85
2018-11-06T17:55:34.069Z,98697.22
2018-11-06T17:58:07.353Z,98694.11
2018-11-06T18:00:41.191Z,98696.26
2018-11-06T18:03:14.097Z,98693.86
2018-11-06T18:05:47.900Z,98683.05
2018-11-06T18:08:21.574Z,98688.19
2018-11-06T18:10:56.524Z,98694.12
2018-11-06T18:13:29.875Z,98693.98
2018-11-06T18:16:02.568Z,98695.09
2018-11-06T18:18:35.874Z,98693.97
2018-11-06T18:21:09.672Z,98697.98
2018-11-06T18:23:44.751Z,98700.98
2018-11-06T18:26:19.473Z,98700.00
2018-11-06T18:28:53.320Z,98704.23
2018-11-06T18:31:26.821Z,98693.57
2018-11-06T18:34:01.239Z,98695.50
2018-11-06T18:36:34.976Z,98698.58
2018-11-06T18:39:12.250Z,98695.83
2018-11-06T18:41:45.390Z,98698.05
2018-11-06T18:44:19.046Z,98689.28
2018-11-06T18:46:51.920Z,98697.29
2018-11-06T18:49:26.180Z,98698.44
2018-11-06T18:51:58.855Z,98692.68
2018-11-06T18:54:30.985Z,98696.98
2018-11-06T18:57:03.497Z,98686.11
2018-11-06T18:59:35.943Z,98691.45
2018-11-06T19:02:09.519Z,98691.56
2018-11-06T19:04:42.436Z,98685.64
2018-11-06T19:07:15.015Z,98686.87
2018-11-06T19:09:47.952Z,98690.73
2018-11-06T19:12:20.740Z,98702.77
2018-11-06T19:14:54.000Z,98698.12
2018-11-06T19:17:26.838Z,98696.29
2018-11-06T19:19:59.249Z,98699.07
2018-11-06T19:22:32.306Z,98702.22
2018-11-06T19:25:04.536Z,98699.80
2018-11-06T19:27:38.644Z,98702.33
2018-11-06T19:30:13.533Z,98698.63
2018-11-06T19:32:46.910Z,98697.98
2018-11-06T19:35:19.547Z,98695.38
2018-11-06T19:37:52.659Z,98692.17
2018-11-06T19:40:26.742Z,98694.57
2018-11-06T19:42:59.415Z,98695.20
2018-11-06T19:45:33.663Z,98698.48
2018-11-06T19:48:06.454Z,98698.14
2018-11-06T19:50:40.106Z,98697.63
2018-11-06T19:53:13.333Z,98695.86
2018-11-06T19:55:46.241Z,98700.27
2018-11-06T19:58:19.767Z,98700.03
2018-11-06T20:00:52.608Z,98698.12
2018-11-06T20:03:25.063Z,98700.92
2018-11-06T20:05:59.046Z,98702.74
2018-11-06T20:08:31.758Z,98705.84
2018-11-06T20:11:05.445Z,98706.72
2018-11-06T20:13:37.794Z,98710.59
2018-11-06T20:16:10.249Z,98707.36
2018-11-06T20:18:42.753Z,98711.06
2018-11-06T20:21:17.377Z,98717.95
2018-11-06T20:23:49.846Z,98716.51
2018-11-06T20:26:23.203Z,98711.16
2018-11-06T20:28:57.190Z,98717.27
2018-11-06T20:31:36.555Z,98717.83
2018-11-06T20:34:09.222Z,98714.93
2018-11-06T20:36:42.137Z,98710.84
2018-11-06T20:39:15.731Z,98710.84
2018-11-06T20:41:50.619Z,98708.62
2018-11-06T20:44:24.117Z,98707.66
2018-11-06T20:46:56.671Z,98715.91
2018-11-06T20:49:29.709Z,98716.29
2018-11-06T20:52:02.568Z,98715.49
2018-11-06T20:54:36.609Z,98716.95
2018-11-06T20:57:09.892Z,98724.07
2018-11-06T20:59:43.071Z,98720.46
2018-11-06T21:02:15.634Z,98720.69
2018-11-06T21:04:49.024Z,98720.55
2018-11-06T21:07:23.386Z,98718.02
2018-11-06T21:09:55.967Z,98712.30
2018-11-06T21:12:30.015Z,98721.17
2018-11-06T21:15:03.032Z,98715.18
2018-11-06T21:17:36.472Z,98727.30
2018-11-06T21:20:11.678Z,98720.84
2018-11-06T21:22:45.509Z,98720.97
2018-11-06T21:25:18.889Z,98717.97
2018-11-06T21:27:51.627Z,98727.06
2018-11-06T21:30:25.207Z,98728.37
2018-11-06T21:32:58.501Z,98729.04
2018-11-06T21:35:31.300Z,98725.09
2018-11-06T21:38:04.465Z,98722.73
2018-11-06T21:40:37.229Z,98724.23
2018-11-06T21:43:09.653Z,98721.07
2018-11-06T21:45:42.492Z,98724.27
2018-11-06T21:48:15.942Z,98732.31
2018-11-06T21:50:48.712Z,98731.20
2018-11-06T21:53:21.566Z,98724.10
2018-11-06T21:55:55.349Z,98730.88
2018-11-06T21:58:26.906Z,98726.67
2018-11-06T22:00:58.659Z,98719.55
2018-11-06T22:03:30.275Z,98716.31
2018-11-06T22:06:01.562Z,98714.45
2018-11-06T22:08:32.483Z,98718.43
2018-11-06T22:11:03.373Z,98718.11
2018-11-06T22:13:34.310Z,98714.88
2018-11-06T22:16:05.263Z,98723.64
2018-11-06T22:18:36.465Z,98727.73
2018-11-06T22:21:07.716Z,98724.31
2018-11-06T22:23:38.934Z,98724.38
2018-11-06T22:26:10.309Z,98721.66
2018-11-06T22:28:41.891Z,98725.99
2018-11-06T22:31:13.524Z,98724.17
2018-11-06T22:33:45.156Z,98716.10
2018-11-06T22:36:16.370Z,98714.55
2018-11-06T22:38:48.088Z,98716.81
2018-11-06T22:41:19.308Z,98709.31
2018-11-06T22:43:50.447Z,98711.09
2018-11-06T22:46:21.477Z,98695.13
2018-11-06T22:48:52.545Z,98699.89
2018-11-06T22:51:23.764Z,98693.94
2018-11-06T22:53:55.173Z,98693.34
2018-11-06T22:56:26.125Z,98691.42
2018-11-06T22:58:57.020Z,98686.14
2018-11-06T23:01:29.532Z,98690.69
2018-11-06T23:04:01.097Z,98687.35
2018-11-06T23:06:31.954Z,98684.50
2018-11-06T23:09:02.989Z,98689.27
2018-11-06T23:11:33.950Z,98689.27
2018-11-06T23:14:04.712Z,98694.85
2018-11-06T23:16:35.657Z,98696.88
2018-11-06T23:19:06.848Z,98697.71
2018-11-06T23:21:37.857Z,98703.70
2018-11-06T23:24:08.704Z,98699.29
2018-11-06T23:26:39.631Z,98710.48
2018-11-06T23:29:10.562Z,98703.90
2018-11-06T23:31:41.643Z,98709.88
2018-11-06T23:34:13.463Z,98710.25
2018-11-06T23:36:44.962Z,98714.19
2018-11-06T23:39:17.089Z,98719.33
2018-11-06T23:41:47.952Z,98721.34
2018-11-06T23:44:18.646Z,98724.23
2018-11-06T23:46:49.996Z,98721.00
2018-11-06T23:49:21.328Z,98730.31
2018-11-06T23:51:52.202Z,98724.97
2018-11-06T23:54:23.156Z,98721.16
2018-11-06T23:56:54.443Z,98715.58
2018-11-06T23:59:25.365Z,98719.14
